Time;durP1;ratioP1;P1;durP2;ratioP2;P2;SDS_P1;SDS_P2;PMS_P1;PMS_P2;Temp;Humidity;BMP_temperature;BMP_pressure;BME280_temperature;BME280_humidity;BME280_pressure;Samples;Min_cycle;Max_cycle;Signal;HPM_P1;HPM_P2
2023/12/18 00:02:08;;;;;;;5.90;3.70;;;;;;;9.03;80.29;101776.33;106620;1259;67518;-71
2023/12/18 00:04:35;;;;;;;8.90;4.30;;;;;;;9.02;80.24;101773.32;104929;1259;138740;-63
2023/12/18 00:07:02;;;;;;;11.00;3.80;;;;;;;9.01;80.16;101760.63;104899;1256;61401;-69
2023/12/18 00:09:29;;;;;;;7.90;4.50;;;;;;;9.01;80.42;101768.02;104969;1258;138879;-71
2023/12/18 00:11:56;;;;;;;7.60;4.50;;;;;;;9.02;80.49;101760.67;104964;1262;75587;-69
2023/12/18 00:14:22;;;;;;;7.20;4.30;;;;;;;9.01;80.53;101753.13;104844;1256;67286;-69
2023/12/18 00:16:49;;;;;;;9.20;4.40;;;;;;;9.01;80.51;101744.89;104815;1260;138323;-64
2023/12/18 00:19:16;;;;;;;10.20;3.80;;;;;;;9.00;80.61;101739.39;104839;1258;61389;-69
2023/12/18 00:21:43;;;;;;;11.80;4.40;;;;;;;8.99;80.59;101736.88;104925;1261;139567;-64
2023/12/18 00:24:09;;;;;;;11.00;4.30;;;;;;;8.99;80.63;101747.57;104836;1257;75575;-70
2023/12/18 00:26:36;;;;;;;8.30;4.50;;;;;;;8.96;80.62;101736.27;104958;1260;66093;-70
2023/12/18 00:29:03;;;;;;;9.00;4.30;;;;;;;8.97;80.67;101730.31;104806;1257;138090;-70
2023/12/18 00:31:29;;;;;;;9.40;4.50;;;;;;;8.97;80.72;101731.38;104876;1258;61330;-71
2023/12/18 00:33:56;;;;;;;9.40;4.00;;;;;;;8.96;80.79;101739.08;104861;1257;138235;-70
2023/12/18 00:36:23;;;;;;;8.80;5.00;;;;;;;8.95;80.79;101735.67;105059;1254;75376;-71
2023/12/18 00:38:50;;;;;;;14.50;4.70;;;;;;;8.92;80.81;101736.42;104949;1259;67248;-71
2023/12/18 00:41:18;;;;;;;8.90;5.00;;;;;;;8.91;80.90;101731.98;104960;1260;138563;-71
2023/12/18 00:43:45;;;;;;;10.10;4.30;;;;;;;8.89;80.96;101725.06;105008;1261;61373;-71
2023/12/18 00:46:12;;;;;;;13.90;5.00;;;;;;;8.88;80.95;101730.98;104832;1257;138403;-70
2023/12/18 00:48:38;;;;;;;6.20;4.20;;;;;;;8.87;81.01;101732.50;104924;1260;75242;-71
2023/12/18 00:51:05;;;;;;;11.80;4.10;;;;;;;8.86;81.09;101734.90;105009;1260;139552;-68
2023/12/18 00:53:32;;;;;;;8.20;4.30;;;;;;;8.85;81.18;101736.25;105065;1260;73722;-70
2023/12/18 00:55:59;;;;;;;9.30;4.20;;;;;;;8.85;81.17;101729.07;104956;1259;61314;-70
2023/12/18 00:58:25;;;;;;;9.30;4.00;;;;;;;8.82;81.23;101731.38;104794;1256;139029;-65
2023/12/18 01:00:52;;;;;;;9.00;3.90;;;;;;;8.80;81.43;101728.30;104769;1259;75682;-64
2023/12/18 01:03:19;;;;;;;9.10;3.40;;;;;;;8.78;81.45;101723.48;104827;1259;138785;-70
2023/12/18 01:05:46;;;;;;;11.70;3.60;;;;;;;8.77;81.36;101727.80;104978;1260;71573;-62
2023/12/18 01:08:13;;;;;;;8.50;4.10;;;;;;;8.74;81.72;101721.23;104850;1259;61330;-63
2023/12/18 01:10:39;;;;;;;5.80;3.20;;;;;;;8.74;81.64;101719.97;104740;1255;138945;-64
2023/12/18 01:13:06;;;;;;;7.20;3.50;;;;;;;8.71;81.76;101718.27;104874;1255;73766;-73
2023/12/18 01:15:33;;;;;;;7.40;3.60;;;;;;;8.68;81.82;101715.84;104844;1258;138658;-65
2023/12/18 01:17:59;;;;;;;7.00;2.90;;;;;;;8.67;81.90;101716.67;105034;1256;72641;-70
2023/12/18 01:20:26;;;;;;;4.60;2.80;;;;;;;8.66;81.91;101714.00;105053;1260;61293;-70
2023/12/18 01:22:53;;;;;;;5.50;2.70;;;;;;;8.66;82.01;101717.48;104854;1256;139080;-70
2023/12/18 01:25:20;;;;;;;5.60;2.90;;;;;;;8.63;82.00;101710.38;104927;1260;76124;-70
2023/12/18 01:27:46;;;;;;;6.40;2.60;;;;;;;8.62;82.11;101707.48;104991;1256;138322;-71
2023/12/18 01:30:13;;;;;;;3.40;2.40;;;;;;;8.60;82.17;101704.29;104856;1261;73751;-63
2023/12/18 01:32:42;;;;;;;5.90;2.40;;;;;;;8.60;82.21;101701.98;105866;1257;61352;-71
2023/12/18 01:35:09;;;;;;;3.90;2.00;;;;;;;8.59;82.29;101703.49;104942;1255;138297;-70
2023/12/18 01:37:35;;;;;;;7.10;2.70;;;;;;;8.59;82.19;101702.45;104991;1259;75009;-69
2023/12/18 01:40:03;;;;;;;3.60;2.00;;;;;;;8.59;82.27;101705.05;104763;1258;139345;-68
2023/12/18 01:42:31;;;;;;;3.80;2.20;;;;;;;8.59;82.31;101700.86;105088;1256;73003;-69
2023/12/18 01:44:58;;;;;;;5.10;2.20;;;;;;;8.58;82.28;101703.13;105007;1256;61314;-70
2023/12/18 01:47:24;;;;;;;3.80;1.90;;;;;;;8.58;82.38;101701.38;104783;1256;138374;-71
2023/12/18 01:49:51;;;;;;;3.80;1.70;;;;;;;8.57;82.36;101700.64;105091;1256;75549;-71
2023/12/18 01:52:18;;;;;;;5.80;1.80;;;;;;;8.56;82.43;101703.92;104763;1260;138881;-71
2023/12/18 01:54:45;;;;;;;2.40;1.30;;;;;;;8.56;82.48;101702.35;104944;1254;73378;-66
2023/12/18 01:57:12;;;;;;;2.40;1.60;;;;;;;8.54;82.48;101699.64;104797;1258;139217;-70
2023/12/18 01:59:38;;;;;;;3.00;1.10;;;;;;;8.54;82.53;101702.04;104784;1256;61353;-70
2023/12/18 02:02:06;;;;;;;2.40;1.30;;;;;;;8.52;82.62;101702.33;104955;1256;75627;-63
2023/12/18 02:04:33;;;;;;;2.40;1.40;;;;;;;8.50;82.59;101703.62;104907;1256;138511;-70
2023/12/18 02:07:00;;;;;;;3.80;1.40;;;;;;;8.50;82.70;101704.30;105003;1256;73762;-64
2023/12/18 02:09:27;;;;;;;2.10;1.10;;;;;;;8.49;82.75;101703.73;108838;1255;138540;-64
2023/12/18 02:11:54;;;;;;;2.70;1.00;;;;;;;8.49;82.73;101702.66;107012;1258;61375;-64
2023/12/18 02:14:21;;;;;;;2.40;1.20;;;;;;;8.48;82.82;101706.81;104967;1257;75700;-70
2023/12/18 02:16:48;;;;;;;1.60;1.10;;;;;;;8.48;82.86;101704.54;104727;1259;138645;-63
2023/12/18 02:19:28;;;;;;;2.40;1.00;;;;;;;8.48;82.79;101704.90;104763;1256;73783;-70
2023/12/18 02:21:55;;;;;;;3.30;1.40;;;;;;;8.48;82.76;101700.85;104862;1256;138506;-69
2023/12/18 02:24:22;;;;;;;2.70;1.20;;;;;;;8.48;82.86;101701.73;105229;1256;61356;-70
2023/12/18 02:26:49;;;;;;;2.30;1.20;;;;;;;8.48;82.90;101692.83;104978;1256;72843;-69
2023/12/18 02:29:16;;;;;;;3.10;1.40;;;;;;;8.49;82.89;101691.84;104790;1260;138205;-69
2023/12/18 02:31:42;;;;;;;2.20;1.20;;;;;;;8.49;82.85;101695.35;104915;1258;73309;-63
2023/12/18 02:34:09;;;;;;;2.30;1.20;;;;;;;8.49;82.88;101692.16;104816;1260;138496;-62
2023/12/18 02:36:36;;;;;;;1.10;1.00;;;;;;;8.48;83.05;101694.38;105113;1258;61146;-70
2023/12/18 02:39:03;;;;;;;1.70;1.20;;;;;;;8.48;82.97;101691.76;104991;1256;138527;-69
2023/12/18 02:41:30;;;;;;;2.90;1.40;;;;;;;8.47;82.97;101696.63;105020;1259;67246;-68
2023/12/18 02:43:57;;;;;;;1.60;1.10;;;;;;;8.48;83.01;101694.02;104959;1256;71186;-69
2023/12/18 02:46:23;;;;;;;1.20;1.00;;;;;;;8.47;83.06;101686.68;104827;1256;139049;-70
2023/12/18 02:48:50;;;;;;;1.90;1.20;;;;;;;8.47;83.03;101691.73;104919;1260;61363;-64
2023/12/18 02:51:17;;;;;;;1.50;1.10;;;;;;;8.47;83.08;101687.02;104891;1256;139281;-68
2023/12/18 02:53:44;;;;;;;1.90;1.20;;;;;;;8.46;83.08;101685.02;104906;1256;66427;-70
2023/12/18 02:56:13;;;;;;;2.30;1.30;;;;;;;8.46;83.06;101687.31;105123;1259;73203;-69
2023/12/18 02:58:40;;;;;;;1.20;0.90;;;;;;;8.47;83.03;101691.36;104763;1259;139097;-69
2023/12/18 03:01:07;;;;;;;2.20;1.20;;;;;;;8.48;83.07;101688.64;107504;1255;61212;-68
2023/12/18 03:03:34;;;;;;;2.50;1.00;;;;;;;8.50;83.08;101687.00;104872;1259;138605;-68
2023/12/18 03:06:00;;;;;;;2.30;1.40;;;;;;;8.51;82.97;101682.85;104963;1258;65713;-69
2023/12/18 03:08:27;;;;;;;2.50;1.30;;;;;;;8.52;82.99;101684.80;104922;1256;72180;-68
2023/12/18 03:10:54;;;;;;;3.40;1.20;;;;;;;8.52;82.88;101687.25;104748;1256;139017;-69
2023/12/18 03:13:21;;;;;;;0.90;0.80;;;;;;;8.52;82.98;101689.73;104851;1256;61349;-69
2023/12/18 03:15:47;;;;;;;2.20;1.10;;;;;;;8.52;83.07;101685.70;104850;1254;138708;-68
2023/12/18 03:18:14;;;;;;;1.40;1.10;;;;;;;8.53;82.99;101677.33;104877;1259;67074;-68
2023/12/18 03:20:41;;;;;;;1.80;1.00;;;;;;;8.53;83.06;101677.32;105017;1259;71779;-64
2023/12/18 03:23:07;;;;;;;1.70;0.80;;;;;;;8.52;83.04;101675.71;104771;1260;139145;-64
2023/12/18 03:25:34;;;;;;;0.70;0.70;;;;;;;8.53;83.06;101681.17;104962;1259;60956;-65
2023/12/18 03:28:01;;;;;;;2.30;0.90;;;;;;;8.54;83.05;101675.27;104866;1256;139085;-68
2023/12/18 03:30:27;;;;;;;1.40;1.00;;;;;;;8.54;83.06;101673.17;104882;1256;65816;-68
2023/12/18 03:32:55;;;;;;;1.50;0.90;;;;;;;8.54;83.13;101660.08;104811;1257;73697;-62
2023/12/18 03:35:22;;;;;;;2.00;1.00;;;;;;;8.55;83.11;101659.92;104871;1256;138788;-62
2023/12/18 03:37:49;;;;;;;1.00;0.90;;;;;;;8.56;83.10;101656.30;105058;1259;61584;-68
2023/12/18 03:40:16;;;;;;;1.80;1.10;;;;;;;8.56;83.15;101655.98;105013;1256;138212;-69
2023/12/18 03:42:42;;;;;;;1.10;0.80;;;;;;;8.57;83.12;101666.14;104950;1257;65670;-62
2023/12/18 03:45:09;;;;;;;0.70;0.70;;;;;;;8.57;83.10;101663.52;104775;1258;140095;-64
2023/12/18 03:47:36;;;;;;;0.50;0.50;;;;;;;8.57;83.19;101667.92;104895;1256;61353;-64
2023/12/18 03:50:04;;;;;;;1.90;0.80;;;;;;;8.57;83.17;101660.91;104820;1256;61766;-69
2023/12/18 03:52:30;;;;;;;1.80;0.80;;;;;;;8.58;83.20;101664.08;104748;1256;138880;-63
2023/12/18 03:54:57;;;;;;;1.00;0.80;;;;;;;8.57;83.06;101664.21;104963;1258;67340;-69
2023/12/18 03:57:24;;;;;;;1.30;0.90;;;;;;;8.57;83.13;101663.34;104852;1256;138707;-70
2023/12/18 03:59:51;;;;;;;1.20;0.70;;;;;;;8.56;83.22;101662.98;104868;1259;61352;-70
2023/12/18 04:02:18;;;;;;;1.30;0.70;;;;;;;8.57;83.17;101667.38;105205;1258;61281;-69
2023/12/18 04:04:45;;;;;;;0.80;0.80;;;;;;;8.58;83.22;101664.26;104945;1256;138320;-68
2023/12/18 04:07:12;;;;;;;1.00;0.80;;;;;;;8.57;83.23;101662.81;104943;1259;67544;-68
2023/12/18 04:09:38;;;;;;;1.50;0.80;;;;;;;8.56;83.28;101653.54;104934;1258;139005;-62
2023/12/18 04:12:06;;;;;;;0.80;0.70;;;;;;;8.56;83.28;101660.17;104833;1255;61263;-69
2023/12/18 04:14:33;;;;;;;1.10;0.70;;;;;;;8.57;83.22;101652.68;105073;1256;61167;-63
2023/12/18 04:17:00;;;;;;;0.80;0.80;;;;;;;8.58;83.35;101660.23;104901;1255;138379;-68
2023/12/18 04:19:26;;;;;;;2.30;0.80;;;;;;;8.58;83.36;101663.58;105063;1260;65339;-69
2023/12/18 04:21:53;;;;;;;1.30;0.80;;;;;;;8.58;83.31;101655.50;104997;1256;138378;-68
2023/12/18 04:24:20;;;;;;;0.90;0.70;;;;;;;8.59;83.44;101650.14;104887;1256;61357;-63
2023/12/18 04:26:47;;;;;;;0.70;0.70;;;;;;;8.59;83.36;101648.22;104860;1258;61244;-63
2023/12/18 04:29:13;;;;;;;0.90;0.60;;;;;;;8.59;83.39;101650.14;104850;1255;138498;-69
2023/12/18 04:31:40;;;;;;;0.80;0.70;;;;;;;8.59;83.37;101653.11;105024;1259;67049;-69
2023/12/18 04:34:07;;;;;;;1.20;0.80;;;;;;;8.58;83.34;101650.64;104783;1256;138232;-69
2023/12/18 04:36:38;;;;;;;1.20;0.70;;;;;;;8.58;83.44;101651.34;104930;1259;61357;-69
2023/12/18 04:39:05;;;;;;;1.10;0.80;;;;;;;8.58;83.45;101657.47;104878;1256;139315;-68
2023/12/18 04:41:32;;;;;;;0.60;0.60;;;;;;;8.58;83.53;101657.62;104916;1256;75715;-69
2023/12/18 04:43:59;;;;;;;1.40;0.80;;;;;;;8.58;83.62;101657.11;105040;1256;66362;-69
2023/12/18 04:46:26;;;;;;;2.00;0.90;;;;;;;8.60;83.78;101658.41;104820;1260;138563;-70
2023/12/18 04:48:52;;;;;;;0.90;0.70;;;;;;;8.60;83.76;101653.00;104950;1257;61330;-69
2023/12/18 04:51:19;;;;;;;2.90;0.70;;;;;;;8.59;83.74;101660.81;104868;1256;139957;-69
2023/12/18 04:53:46;;;;;;;1.80;0.80;;;;;;;8.58;83.73;101653.08;104828;1256;75861;-68
2023/12/18 04:56:12;;;;;;;1.40;0.70;;;;;;;8.58;83.67;101652.38;104840;1256;64215;-63
2023/12/18 04:58:39;;;;;;;1.10;0.70;;;;;;;8.57;83.73;101648.50;104624;1256;139349;-62
2023/12/18 05:01:06;;;;;;;0.70;0.70;;;;;;;8.57;83.83;101654.78;104852;1259;61357;-64
2023/12/18 05:03:33;;;;;;;1.80;0.90;;;;;;;8.56;83.87;101654.77;104794;1256;139138;-64
2023/12/18 05:06:00;;;;;;;0.70;0.70;;;;;;;8.57;83.80;101652.51;104695;1261;75740;-63
2023/12/18 05:08:27;;;;;;;2.20;1.10;;;;;;;8.58;83.82;101656.02;104858;1258;66616;-63
2023/12/18 05:10:54;;;;;;;1.10;0.80;;;;;;;8.59;83.83;101659.92;104694;1260;139115;-64
2023/12/18 05:13:21;;;;;;;2.70;1.00;;;;;;;8.59;83.83;101656.98;104852;1260;61628;-68
2023/12/18 05:15:48;;;;;;;1.90;1.00;;;;;;;8.59;83.82;101652.79;104984;1256;138291;-63
2023/12/18 05:18:14;;;;;;;1.70;0.90;;;;;;;8.59;83.87;101647.70;104919;1257;73833;-68
2023/12/18 05:20:41;;;;;;;1.60;1.20;;;;;;;8.59;83.84;101648.58;104834;1259;65689;-69
2023/12/18 05:23:07;;;;;;;1.00;0.80;;;;;;;8.59;83.91;101645.23;104750;1260;138501;-68
2023/12/18 05:25:34;;;;;;;1.50;1.10;;;;;;;8.59;83.86;101645.58;104810;1260;61370;-67
2023/12/18 05:28:01;;;;;;;1.00;0.90;;;;;;;8.57;83.81;101643.06;104773;1257;139540;-68
2023/12/18 05:30:27;;;;;;;2.30;1.30;;;;;;;8.58;83.84;101644.14;104997;1258;74555;-69
2023/12/18 05:32:54;;;;;;;1.60;1.30;;;;;;;8.58;83.93;101642.25;105044;1256;66433;-69
2023/12/18 05:35:21;;;;;;;1.70;1.30;;;;;;;8.56;83.89;101641.98;104892;1256;138207;-69
2023/12/18 05:37:48;;;;;;;0.80;0.80;;;;;;;8.56;83.95;101640.24;105062;1257;61242;-69
2023/12/18 05:40:15;;;;;;;0.80;0.80;;;;;;;8.55;83.90;101641.75;104891;1260;138821;-64
2023/12/18 05:42:42;;;;;;;0.60;0.60;;;;;;;8.54;83.96;101643.80;104884;1258;75099;-64
2023/12/18 05:45:09;;;;;;;0.60;0.60;;;;;;;8.52;84.03;101648.27;104774;1256;139240;-67
2023/12/18 05:47:36;;;;;;;3.40;0.70;;;;;;;8.51;84.03;101650.84;105374;1258;74095;-68
2023/12/18 05:50:03;;;;;;;0.80;0.70;;;;;;;8.53;84.07;101649.67;104882;1256;61379;-63
2023/12/18 05:52:29;;;;;;;0.80;0.80;;;;;;;8.52;84.04;101649.15;104769;1257;138793;-64
2023/12/18 05:54:56;;;;;;;0.70;0.60;;;;;;;8.52;84.05;101648.78;104880;1257;74926;-63
2023/12/18 05:57:23;;;;;;;0.90;0.70;;;;;;;8.52;84.16;101647.89;104844;1256;140490;-64
2023/12/18 05:59:50;;;;;;;0.90;0.70;;;;;;;8.53;84.14;101653.36;104616;1256;72990;-64
2023/12/18 06:02:16;;;;;;;1.10;0.80;;;;;;;8.52;84.05;101649.49;104839;1260;61301;-61
2023/12/18 06:04:43;;;;;;;1.60;0.90;;;;;;;8.53;84.18;101650.59;104652;1256;138415;-73
2023/12/18 06:07:10;;;;;;;0.60;0.60;;;;;;;8.54;84.16;101654.14;104794;1260;75065;-65
2023/12/18 06:09:37;;;;;;;1.00;0.80;;;;;;;8.55;84.20;101652.77;104792;1257;138258;-64
2023/12/18 06:12:05;;;;;;;1.20;0.70;;;;;;;8.55;84.17;101654.52;104975;1258;74212;-64
2023/12/18 06:14:32;;;;;;;0.70;0.70;;;;;;;8.55;84.23;101654.52;108258;1257;61347;-69
2023/12/18 06:16:59;;;;;;;0.70;0.70;;;;;;;8.56;84.18;101661.05;104753;1261;139026;-62
2023/12/18 06:19:26;;;;;;;0.90;0.80;;;;;;;8.57;84.22;101654.98;108961;1256;76464;-62
2023/12/18 06:21:53;;;;;;;0.80;0.70;;;;;;;8.59;84.18;101658.53;108895;1256;138477;-63
2023/12/18 06:24:20;;;;;;;1.60;1.00;;;;;;;8.60;84.21;101657.73;109029;1257;72781;-67
2023/12/18 06:26:47;;;;;;;1.30;1.00;;;;;;;8.64;84.17;101665.77;105835;1258;61345;-62
2023/12/18 06:29:14;;;;;;;0.90;0.80;;;;;;;8.65;84.12;101666.67;108895;1258;138719;-64
2023/12/18 06:31:41;;;;;;;1.00;0.90;;;;;;;8.66;84.11;101672.34;109035;1256;75739;-62
2023/12/18 06:34:07;;;;;;;1.50;0.80;;;;;;;8.66;84.12;101673.61;108842;1254;138801;-62
2023/12/18 06:36:34;;;;;;;0.70;0.70;;;;;;;8.68;84.07;101673.72;108961;1256;73955;-67
2023/12/18 06:39:01;;;;;;;0.70;0.60;;;;;;;8.70;84.06;101672.41;108880;1256;138590;-63
2023/12/18 06:41:28;;;;;;;1.90;1.60;;;;;;;8.72;84.00;101677.01;109026;1254;61332;-67
2023/12/18 06:43:55;;;;;;;4.50;3.70;;;;;;;8.74;84.02;101680.27;109076;1257;76374;-62
2023/12/18 06:46:22;;;;;;;4.60;3.20;;;;;;;8.75;83.99;101682.58;108990;1254;139072;-62
2023/12/18 06:48:49;;;;;;;9.80;6.60;;;;;;;8.75;83.92;101681.74;109074;1256;72615;-62
2023/12/18 06:51:16;;;;;;;3.80;2.90;;;;;;;8.76;83.90;101684.20;108880;1256;139645;-67
2023/12/18 06:53:43;;;;;;;3.20;2.30;;;;;;;8.77;83.92;101683.01;109057;1255;61979;-62
2023/12/18 06:56:09;;;;;;;15.50;10.20;;;;;;;8.77;83.79;101689.85;108982;1255;75140;-61
2023/12/18 06:58:36;;;;;;;15.60;9.30;;;;;;;8.78;83.87;101687.44;108868;1256;139353;-61
2023/12/18 07:01:03;;;;;;;10.30;5.50;;;;;;;8.79;83.91;101683.09;109074;1256;72250;-62
2023/12/18 07:03:30;;;;;;;16.90;9.20;;;;;;;8.81;83.77;101684.95;108924;1255;139238;-62
2023/12/18 07:05:56;;;;;;;17.30;8.80;;;;;;;8.82;83.78;101689.77;109046;1255;61092;-62
2023/12/18 07:08:23;;;;;;;23.50;12.30;;;;;;;8.84;83.74;101689.98;109091;1255;74769;-62
2023/12/18 07:10:50;;;;;;;10.30;7.30;;;;;;;8.85;83.76;101689.16;108885;1256;138626;-62
2023/12/18 07:13:17;;;;;;;4.90;4.30;;;;;;;8.86;83.71;101694.27;106996;1256;73228;-62
2023/12/18 07:15:43;;;;;;;1.50;1.20;;;;;;;8.86;83.75;101693.74;105001;1256;138565;-62
2023/12/18 07:18:13;;;;;;;2.90;2.40;;;;;;;8.84;83.60;101695.96;104901;1255;63037;-62
2023/12/18 07:20:41;;;;;;;1.50;1.40;;;;;;;8.82;83.69;101697.59;108697;1254;75796;-63
2023/12/18 07:23:08;;;;;;;3.50;2.60;;;;;;;8.81;83.73;101705.09;108964;1256;138871;-63
2023/12/18 07:25:35;;;;;;;2.40;1.60;;;;;;;8.81;83.73;101708.91;105731;1256;72766;-67
2023/12/18 07:28:07;;;;;;;1.50;1.30;;;;;;;8.81;83.78;101714.20;104861;1255;138574;-67
2023/12/18 07:30:34;;;;;;;1.90;1.50;;;;;;;8.82;83.81;101719.66;105498;1259;61412;-67
2023/12/18 07:33:01;;;;;;;2.40;1.40;;;;;;;8.82;83.73;101737.17;104929;1256;138701;-62
2023/12/18 07:35:28;;;;;;;1.90;1.60;;;;;;;8.83;83.73;101742.45;109080;1256;67370;-62
2023/12/18 07:37:54;;;;;;;1.90;1.20;;;;;;;8.84;83.77;101749.48;109082;1256;71473;-62
2023/12/18 07:40:21;;;;;;;4.00;1.70;;;;;;;8.85;83.78;101746.04;108958;1256;138707;-62
2023/12/18 07:42:48;;;;;;;1.80;1.70;;;;;;;8.88;83.79;101747.76;109137;1256;60356;-62
2023/12/18 07:45:15;;;;;;;2.80;1.90;;;;;;;8.90;83.81;101739.85;106493;1256;139158;-68
2023/12/18 07:47:41;;;;;;;2.60;1.60;;;;;;;8.93;83.72;101743.83;109079;1255;65421;-68
2023/12/18 07:50:08;;;;;;;5.00;3.20;;;;;;;8.97;83.77;101745.60;109061;1256;72732;-62
2023/12/18 07:52:35;;;;;;;2.20;1.20;;;;;;;8.99;83.59;101755.15;105798;1260;138397;-63
2023/12/18 07:55:02;;;;;;;2.80;1.50;;;;;;;9.00;83.59;101767.80;104964;1256;61450;-61
2023/12/18 07:57:29;;;;;;;2.10;1.40;;;;;;;9.02;83.61;101764.04;104817;1256;138655;-62
2023/12/18 07:59:56;;;;;;;1.90;1.60;;;;;;;9.03;83.51;101772.66;105048;1256;66591;-67
2023/12/18 08:02:22;;;;;;;3.10;2.00;;;;;;;9.05;83.57;101770.80;105060;1260;73668;-67
2023/12/18 08:04:50;;;;;;;2.60;1.70;;;;;;;9.08;83.64;101762.39;104845;1261;138973;-68
2023/12/18 08:07:17;;;;;;;2.30;1.40;;;;;;;9.11;83.57;101764.27;105010;1258;65260;-67
2023/12/18 08:09:44;;;;;;;3.10;1.80;;;;;;;9.10;83.49;101764.59;105044;1254;139244;-62
2023/12/18 08:12:11;;;;;;;2.90;2.30;;;;;;;9.10;83.52;101761.81;105003;1256;64749;-67
2023/12/18 08:14:38;;;;;;;5.60;1.90;;;;;;;9.10;83.50;101762.86;104978;1256;70979;-68
2023/12/18 08:17:05;;;;;;;1.60;1.30;;;;;;;9.10;83.46;101762.67;105085;1256;138555;-67
2023/12/18 08:19:31;;;;;;;1.90;1.40;;;;;;;9.09;83.46;101769.61;105014;1256;61351;-68
2023/12/18 08:21:58;;;;;;;1.10;0.90;;;;;;;9.09;83.41;101766.09;104930;1256;138495;-67
2023/12/18 08:24:25;;;;;;;2.50;1.10;;;;;;;9.06;83.35;101761.23;104814;1261;67250;-66
2023/12/18 08:26:52;;;;;;;0.90;0.80;;;;;;;9.02;83.32;101750.88;104919;1260;72413;-68
2023/12/18 08:29:18;;;;;;;1.50;1.10;;;;;;;9.00;83.37;101742.37;104823;1261;138403;-67
2023/12/18 08:31:45;;;;;;;1.10;1.00;;;;;;;8.98;83.43;101741.60;104877;1259;61337;-67
2023/12/18 08:34:12;;;;;;;1.40;1.20;;;;;;;8.98;83.48;101742.43;104897;1258;138545;-61
2023/12/18 08:36:39;;;;;;;1.80;1.30;;;;;;;8.95;83.48;101750.05;104934;1262;66274;-61
2023/12/18 08:39:08;;;;;;;2.50;2.30;;;;;;;8.96;83.52;101756.19;104853;1259;139139;-60
2023/12/18 08:41:37;;;;;;;2.30;1.50;;;;;;;8.95;83.47;101760.38;109076;1254;59000;-62
2023/12/18 08:44:04;;;;;;;2.10;1.50;;;;;;;8.97;83.54;101764.99;109045;1255;59496;-62
2023/12/18 08:46:30;;;;;;;1.80;1.40;;;;;;;9.03;83.72;101763.70;108999;1255;138352;-61
2023/12/18 08:48:57;;;;;;;2.20;1.40;;;;;;;9.11;83.78;101768.14;109092;1255;66732;-63
2023/12/18 08:51:24;;;;;;;2.80;1.60;;;;;;;9.22;83.78;101770.20;108915;1256;138882;-63
2023/12/18 08:53:51;;;;;;;2.10;1.40;;;;;;;9.30;83.69;101775.66;109017;1256;59558;-63
2023/12/18 08:56:18;;;;;;;1.60;1.20;;;;;;;9.39;83.61;101782.19;107706;1258;60377;-68
2023/12/18 08:58:45;;;;;;;2.90;1.70;;;;;;;9.48;83.57;101784.76;104996;1258;139348;-68
2023/12/18 09:01:11;;;;;;;3.50;1.40;;;;;;;9.60;83.43;101788.23;105008;1258;67331;-67
2023/12/18 09:03:38;;;;;;;3.30;2.10;;;;;;;9.68;83.31;101790.20;104826;1256;139067;-67
2023/12/18 09:06:05;;;;;;;2.10;1.40;;;;;;;9.75;83.15;101787.52;104913;1255;59964;-68
2023/12/18 09:08:39;;;;;;;2.50;1.50;;;;;;;9.80;83.10;101788.44;104897;1259;61670;-67
2023/12/18 09:11:09;;;;;;;3.00;1.50;;;;;;;9.85;83.06;101790.98;104853;1256;138349;-68
2023/12/18 09:13:36;;;;;;;1.60;1.30;;;;;;;9.89;83.02;101795.84;104927;1256;66190;-67
2023/12/18 09:16:06;;;;;;;4.30;2.20;;;;;;;9.90;82.81;101795.02;104801;1257;138360;-67
2023/12/18 09:18:34;;;;;;;2.70;1.30;;;;;;;9.88;82.69;101795.46;105862;1260;61350;-67
2023/12/18 09:21:01;;;;;;;1.90;1.20;;;;;;;9.84;82.57;101796.84;108956;1255;140581;-62
2023/12/18 09:23:28;;;;;;;1.70;1.40;;;;;;;9.79;82.50;101799.99;108217;1258;73891;-62
2023/12/18 09:25:55;;;;;;;1.90;1.20;;;;;;;9.78;82.63;101803.10;105044;1255;67012;-68
2023/12/18 09:28:22;;;;;;;4.30;2.00;;;;;;;9.79;82.75;101805.77;104851;1260;138400;-62
2023/12/18 09:30:49;;;;;;;2.70;2.20;;;;;;;9.84;82.79;101807.57;105083;1261;61433;-67
2023/12/18 09:33:15;;;;;;;2.50;1.20;;;;;;;9.93;82.90;101808.14;104947;1256;138627;-62
2023/12/18 09:35:42;;;;;;;1.20;1.10;;;;;;;10.07;82.95;101812.44;105003;1256;75947;-62
2023/12/18 09:38:09;;;;;;;2.30;1.40;;;;;;;10.21;82.99;101816.20;105021;1258;66821;-67
2023/12/18 09:40:36;;;;;;;1.30;1.20;;;;;;;10.30;82.67;101812.05;104807;1256;138856;-67
2023/12/18 09:43:03;;;;;;;1.20;1.10;;;;;;;10.35;82.41;101811.57;104866;1262;61316;-68
2023/12/18 09:45:30;;;;;;;1.90;1.20;;;;;;;10.37;82.16;101810.60;104953;1256;139572;-66
2023/12/18 09:47:57;;;;;;;1.70;1.30;;;;;;;10.38;82.17;101809.60;109012;1256;74336;-67
2023/12/18 09:50:24;;;;;;;2.60;1.20;;;;;;;10.39;82.02;101809.98;109046;1255;67641;-62
2023/12/18 09:52:57;;;;;;;1.80;1.40;;;;;;;10.42;82.00;101805.38;108931;1257;137812;-62
2023/12/18 09:55:24;;;;;;;2.10;1.60;;;;;;;10.47;82.08;101811.23;108046;1256;59184;-62
2023/12/18 09:57:51;;;;;;;2.10;1.50;;;;;;;10.53;81.97;101807.42;104790;1256;138743;-61
2023/12/18 10:00:20;;;;;;;1.40;1.20;;;;;;;10.59;81.96;101807.31;109020;1255;75634;-62
2023/12/18 10:02:46;;;;;;;1.50;1.10;;;;;;;10.63;81.80;101806.44;107597;1256;66371;-67
2023/12/18 10:05:14;;;;;;;2.30;1.80;;;;;;;10.66;81.69;101808.66;104626;1264;138468;-67
2023/12/18 10:07:41;;;;;;;2.30;1.50;;;;;;;10.68;81.60;101811.39;109008;1256;59529;-67
2023/12/18 10:10:08;;;;;;;3.10;2.20;;;;;;;10.69;81.42;101811.42;109029;1254;139245;-63
2023/12/18 10:12:38;;;;;;;2.80;1.30;;;;;;;10.65;81.20;101818.79;109047;1256;72943;-63
2023/12/18 10:15:09;;;;;;;2.40;1.60;;;;;;;10.61;81.24;101819.88;108923;1256;138404;-63
2023/12/18 10:17:38;;;;;;;2.70;1.20;;;;;;;10.62;81.26;101818.31;108999;1256;74032;-68
2023/12/18 10:20:08;;;;;;;2.00;1.10;;;;;;;10.57;80.98;101817.08;109072;1256;59300;-67
2023/12/18 10:22:35;;;;;;;1.30;1.10;;;;;;;10.54;81.07;101817.65;108974;1256;138399;-68
2023/12/18 10:25:02;;;;;;;3.00;1.80;;;;;;;10.54;81.12;101820.11;106408;1259;75633;-66
2023/12/18 10:27:32;;;;;;;30.30;20.10;;;;;;;10.56;81.27;101815.44;104852;1258;139095;-67
2023/12/18 10:29:58;;;;;;;6.90;5.40;;;;;;;10.60;81.33;101813.89;104876;1262;72826;-62
2023/12/18 10:32:26;;;;;;;41.80;23.30;;;;;;;10.61;81.17;101814.63;104962;1261;61313;-62
2023/12/18 10:34:54;;;;;;;8.50;5.30;;;;;;;10.58;81.06;101813.96;104940;1259;138836;-62
2023/12/18 10:37:25;;;;;;;5.20;3.70;;;;;;;10.54;81.11;101814.66;104829;1256;74477;-62
2023/12/18 10:39:51;;;;;;;7.30;5.70;;;;;;;10.52;81.21;101813.18;104771;1258;138680;-63
2023/12/18 10:42:31;;;;;;;19.20;12.60;;;;;;;10.53;81.31;101810.59;104426;1262;278170;-62
2023/12/18 10:44:59;;;;;;;41.50;23.00;;;;;;;10.55;81.20;101808.00;109042;1258;59871;-62
2023/12/18 10:47:25;;;;;;;5.80;4.10;;;;;;;10.54;81.24;101806.23;108916;1260;138670;-63
2023/12/18 10:49:52;;;;;;;16.40;11.50;;;;;;;10.52;81.20;101804.39;109070;1255;73948;-62
2023/12/18 10:52:20;;;;;;;9.30;6.70;;;;;;;10.51;81.12;101798.58;108930;1256;139299;-62
2023/12/18 10:54:47;;;;;;;5.00;3.90;;;;;;;10.47;81.09;101797.53;109035;1255;73295;-62
2023/12/18 10:57:17;;;;;;;10.10;7.80;;;;;;;10.42;81.03;101798.71;107428;1257;139220;-62
2023/12/18 10:59:48;;;;;;;4.10;2.70;;;;;;;10.34;80.89;101799.42;109048;1256;59903;-68
2023/12/18 11:02:15;;;;;;;8.80;6.70;;;;;;;10.29;80.87;101798.13;109100;1256;74941;-62
2023/12/18 11:04:48;;;;;;;11.40;6.80;;;;;;;10.23;80.87;101795.95;108896;1254;138689;-67
2023/12/18 11:07:16;;;;;;;4.60;2.90;;;;;;;10.19;80.97;101792.42;109085;1256;73838;-67
2023/12/18 11:09:43;;;;;;;3.80;2.10;;;;;;;10.18;81.09;101792.92;108948;1256;139607;-67
2023/12/18 11:12:11;;;;;;;3.70;2.20;;;;;;;10.19;81.15;101794.73;109032;1254;59443;-67
2023/12/18 11:14:52;;;;;;;30.10;12.60;;;;;;;10.25;81.29;101793.22;105150;1257;73346;-67
2023/12/18 11:17:26;;;;;;;13.70;5.90;;;;;;;10.32;81.32;101787.78;104763;1259;138664;-67
2023/12/18 11:20:00;;;;;;;20.20;13.80;;;;;;;10.36;81.10;101791.23;109056;1256;73833;-68